sensor_id;sensor_type;location;lat;lon;timestamp;pressure;altitude;pressure_sealevel;temperature;humidity
60897;BME280;46749;32.932;-117.130;2023-04-22T00:01:33;101767.03;;;23.32;50.58
60897;BME280;46749;32.932;-117.130;2023-04-22T00:03:59;101764.41;;;23.33;50.58
60897;BME280;46749;32.932;-117.130;2023-04-22T00:06:26;101771.47;;;23.37;50.70
60897;BME280;46749;32.932;-117.130;2023-04-22T00:08:52;101766.19;;;23.40;50.39
60897;BME280;46749;32.932;-117.130;2023-04-22T00:11:18;101766.19;;;23.39;50.59
60897;BME280;46749;32.932;-117.130;2023-04-22T00:13:45;101767.94;;;23.38;50.60
60897;BME280;46749;32.932;-117.130;2023-04-22T00:16:11;101757.34;;;23.35;50.62
60897;BME280;46749;32.932;-117.130;2023-04-22T00:18:37;101759.09;;;23.33;50.87
60897;BME280;46749;32.932;-117.130;2023-04-22T00:21:04;101759.09;;;23.33;50.48
60897;BME280;46749;32.932;-117.130;2023-04-22T00:23:31;101760.84;;;23.30;50.59
60897;BME280;46749;32.932;-117.130;2023-04-22T00:25:57;101757.34;;;23.28;50.68
60897;BME280;46749;32.932;-117.130;2023-04-22T00:28:23;101752.03;;;23.26;50.99
60897;BME280;46749;32.932;-117.130;2023-04-22T00:30:51;101745.88;;;23.26;50.78
60897;BME280;46749;32.932;-117.130;2023-04-22T00:33:17;101743.19;;;23.27;50.61
60897;BME280;46749;32.932;-117.130;2023-04-22T00:35:45;101748.50;;;23.29;51.21
60897;BME280;46749;32.932;-117.130;2023-04-22T00:38:11;101749.41;;;23.32;50.59
60897;BME280;46749;32.932;-117.130;2023-04-22T00:40:38;101750.25;;;23.37;50.61
60897;BME280;46749;32.932;-117.130;2023-04-22T00:43:04;101744.97;;;23.40;51.03
60897;BME280;46749;32.932;-117.130;2023-04-22T00:45:31;101748.50;;;23.41;50.51
60897;BME280;46749;32.932;-117.130;2023-04-22T00:48:00;101741.44;;;23.38;50.70
60897;BME280;46749;32.932;-117.130;2023-04-22T00:50:27;101742.31;;;23.34;50.85
60897;BME280;46749;32.932;-117.130;2023-04-22T00:52:53;101732.59;;;23.30;50.66
60897;BME280;46749;32.932;-117.130;2023-04-22T00:55:20;101732.59;;;23.27;50.83
60897;BME280;46749;32.932;-117.130;2023-04-22T00:57:48;101737.88;;;23.24;50.72
60897;BME280;46749;32.932;-117.130;2023-04-22T01:00:16;101739.66;;;23.22;50.60
60897;BME280;46749;32.932;-117.130;2023-04-22T01:02:45;101738.78;;;23.22;50.99
60897;BME280;46749;32.932;-117.130;2023-04-22T01:05:12;101734.38;;;23.22;51.18
60897;BME280;46749;32.932;-117.130;2023-04-22T01:07:38;101733.47;;;23.25;50.73
60897;BME280;46749;32.932;-117.130;2023-04-22T01:10:05;101735.25;;;23.27;51.30
60897;BME280;46749;32.932;-117.130;2023-04-22T01:12:32;101739.66;;;23.28;50.60
60897;BME280;46749;32.932;-117.130;2023-04-22T01:14:58;101733.47;;;23.28;51.07
60897;BME280;46749;32.932;-117.130;2023-04-22T01:17:26;101736.13;;;23.29;51.09
60897;BME280;46749;32.932;-117.130;2023-04-22T01:19:52;101729.03;;;23.31;50.88
60897;BME280;46749;32.932;-117.130;2023-04-22T01:22:28;101730.84;;;23.32;50.68
60897;BME280;46749;32.932;-117.130;2023-04-22T01:24:58;101722.00;;;23.33;51.13
60897;BME280;46749;32.932;-117.130;2023-04-22T01:27:24;101721.13;;;23.33;51.13
60897;BME280;46749;32.932;-117.130;2023-04-22T01:29:51;101713.13;;;23.31;49.65
60897;BME280;46749;32.932;-117.130;2023-04-22T01:32:18;101709.63;;;23.23;48.71
60897;BME280;46749;32.932;-117.130;2023-04-22T01:34:44;101714.94;;;23.20;49.11
60897;BME280;46749;32.932;-117.130;2023-04-22T01:37:10;101709.63;;;23.20;49.60
60897;BME280;46749;32.932;-117.130;2023-04-22T01:39:37;101708.75;;;23.21;49.76
60897;BME280;46749;32.932;-117.130;2023-04-22T01:42:03;101706.09;;;23.23;50.05
60897;BME280;46749;32.932;-117.130;2023-04-22T01:44:29;101707.84;;;23.22;50.43
60897;BME280;46749;32.932;-117.130;2023-04-22T01:46:56;101702.56;;;23.22;50.59
60897;BME280;46749;32.932;-117.130;2023-04-22T01:49:22;101701.66;;;23.25;50.26
60897;BME280;46749;32.932;-117.130;2023-04-22T01:51:48;101703.44;;;23.26;50.24
60897;BME280;46749;32.932;-117.130;2023-04-22T01:54:15;101699.00;;;23.29;50.36
60897;BME280;46749;32.932;-117.130;2023-04-22T01:56:41;101707.84;;;23.30;50.32
60897;BME280;46749;32.932;-117.130;2023-04-22T01:59:10;101707.84;;;23.31;50.49
60897;BME280;46749;32.932;-117.130;2023-04-22T02:01:37;101708.72;;;23.30;50.28
60897;BME280;46749;32.932;-117.130;2023-04-22T02:04:03;101707.84;;;23.31;50.06
60897;BME280;46749;32.932;-117.130;2023-04-22T02:06:29;101713.13;;;23.31;50.00
60897;BME280;46749;32.932;-117.130;2023-04-22T02:08:56;101703.41;;;23.32;49.98
60897;BME280;46749;32.932;-117.130;2023-04-22T02:11:22;101709.63;;;23.34;50.40
60897;BME280;46749;32.932;-117.130;2023-04-22T02:13:48;101703.44;;;23.35;50.35
60897;BME280;46749;32.932;-117.130;2023-04-22T02:16:15;101709.63;;;23.35;50.29
60897;BME280;46749;32.932;-117.130;2023-04-22T02:18:41;101701.66;;;23.34;50.09
60897;BME280;46749;32.932;-117.130;2023-04-22T02:21:08;101702.56;;;23.34;50.11
60897;BME280;46749;32.932;-117.130;2023-04-22T02:23:35;101691.06;;;23.34;50.54
60897;BME280;46749;32.932;-117.130;2023-04-22T02:26:02;101691.97;;;23.33;50.16
60897;BME280;46749;32.932;-117.130;2023-04-22T02:28:28;101686.66;;;23.33;50.50
60897;BME280;46749;32.932;-117.130;2023-04-22T02:30:54;101683.13;;;23.34;50.08
60897;BME280;46749;32.932;-117.130;2023-04-22T02:33:21;101683.09;;;23.35;50.58
60897;BME280;46749;32.932;-117.130;2023-04-22T02:35:47;101683.09;;;23.37;50.14
60897;BME280;46749;32.932;-117.130;2023-04-22T02:38:14;101681.31;;;23.37;50.53
60897;BME280;46749;32.932;-117.130;2023-04-22T02:40:40;101688.41;;;23.37;50.13
60897;BME280;46749;32.932;-117.130;2023-04-22T02:43:06;101690.19;;;23.35;50.38
60897;BME280;46749;32.932;-117.130;2023-04-22T02:45:32;101682.22;;;23.36;51.03
60897;BME280;46749;32.932;-117.130;2023-04-22T02:47:59;101680.47;;;23.38;50.94
60897;BME280;46749;32.932;-117.130;2023-04-22T02:50:25;101695.47;;;23.42;50.64
60897;BME280;46749;32.932;-117.130;2023-04-22T02:52:51;101692.81;;;23.46;50.73
60897;BME280;46749;32.932;-117.130;2023-04-22T02:55:17;101691.06;;;23.46;50.80
60897;BME280;46749;32.932;-117.130;2023-04-22T02:57:44;101691.94;;;23.48;50.56
60897;BME280;46749;32.932;-117.130;2023-04-22T03:00:10;101698.97;;;23.51;50.43
60897;BME280;46749;32.932;-117.130;2023-04-22T03:02:37;101699.88;;;23.51;50.19
60897;BME280;46749;32.932;-117.130;2023-04-22T03:05:03;101698.13;;;23.52;51.14
60897;BME280;46749;32.932;-117.130;2023-04-22T03:07:29;101697.25;;;23.51;50.52
60897;BME280;46749;32.932;-117.130;2023-04-22T03:09:56;101695.44;;;23.50;50.34
60897;BME280;46749;32.932;-117.130;2023-04-22T03:12:23;101695.47;;;23.49;50.48
60897;BME280;46749;32.932;-117.130;2023-04-22T03:14:49;101691.03;;;23.48;50.50
60897;BME280;46749;32.932;-117.130;2023-04-22T03:17:15;101696.34;;;23.48;50.24
60897;BME280;46749;32.932;-117.130;2023-04-22T03:19:42;101697.22;;;23.48;50.47
60897;BME280;46749;32.932;-117.130;2023-04-22T03:22:08;101693.69;;;23.48;50.62
60897;BME280;46749;32.932;-117.130;2023-04-22T03:24:34;101691.03;;;23.48;50.10
60897;BME280;46749;32.932;-117.130;2023-04-22T03:27:00;101692.81;;;23.49;50.75
60897;BME280;46749;32.932;-117.130;2023-04-22T03:29:27;101689.25;;;23.50;50.24
60897;BME280;46749;32.932;-117.130;2023-04-22T03:31:53;101691.03;;;23.49;50.30
60897;BME280;46749;32.932;-117.130;2023-04-22T03:34:19;101688.41;;;23.52;50.69
60897;BME280;46749;32.932;-117.130;2023-04-22T03:37:04;101682.19;;;23.53;50.76
60897;BME280;46749;32.932;-117.130;2023-04-22T03:39:30;101693.69;;;23.54;50.19
60897;BME280;46749;32.932;-117.130;2023-04-22T03:41:57;101688.38;;;23.51;50.50
60897;BME280;46749;32.932;-117.130;2023-04-22T03:44:23;101693.69;;;23.48;50.25
60897;BME280;46749;32.932;-117.130;2023-04-22T03:46:49;101695.47;;;23.46;50.80
60897;BME280;46749;32.932;-117.130;2023-04-22T03:49:15;101697.25;;;23.47;50.30
60897;BME280;46749;32.932;-117.130;2023-04-22T03:51:41;101691.94;;;23.47;50.83
60897;BME280;46749;32.932;-117.130;2023-04-22T03:54:08;101699.88;;;23.48;50.25
60897;BME280;46749;32.932;-117.130;2023-04-22T03:56:34;101704.31;;;23.48;50.75
60897;BME280;46749;32.932;-117.130;2023-04-22T03:59:01;101697.25;;;23.47;50.58
60897;BME280;46749;32.932;-117.130;2023-04-22T04:01:27;101695.47;;;23.46;50.84
60897;BME280;46749;32.932;-117.130;2023-04-22T04:03:53;101695.47;;;23.46;50.63
60897;BME280;46749;32.932;-117.130;2023-04-22T04:06:20;101703.44;;;23.47;51.29
60897;BME280;46749;32.932;-117.130;2023-04-22T04:08:46;101697.22;;;23.50;50.48
60897;BME280;46749;32.932;-117.130;2023-04-22T04:11:12;101701.66;;;23.48;50.90
60897;BME280;46749;32.932;-117.130;2023-04-22T04:13:38;101702.56;;;23.40;50.70
60897;BME280;46749;32.932;-117.130;2023-04-22T04:16:05;101702.56;;;23.39;50.91
60897;BME280;46749;32.932;-117.130;2023-04-22T04:18:31;101706.97;;;23.40;51.08
60897;BME280;46749;32.932;-117.130;2023-04-22T04:20:57;101703.44;;;23.39;51.16
60897;BME280;46749;32.932;-117.130;2023-04-22T04:23:24;101703.44;;;23.39;50.96
60897;BME280;46749;32.932;-117.130;2023-04-22T04:25:50;101704.31;;;23.37;50.98
60897;BME280;46749;32.932;-117.130;2023-04-22T04:28:17;101709.63;;;23.29;50.76
60897;BME280;46749;32.932;-117.130;2023-04-22T04:30:44;101714.03;;;23.18;50.69
60897;BME280;46749;32.932;-117.130;2023-04-22T04:33:10;101718.44;;;23.10;50.74
60897;BME280;46749;32.932;-117.130;2023-04-22T04:35:36;101714.94;;;23.02;51.20
60897;BME280;46749;32.932;-117.130;2023-04-22T04:38:06;101721.09;;;22.95;50.87
60897;BME280;46749;32.932;-117.130;2023-04-22T04:40:33;101729.03;;;22.88;50.84
60897;BME280;46749;32.932;-117.130;2023-04-22T04:43:00;101719.28;;;22.83;51.36
60897;BME280;46749;32.932;-117.130;2023-04-22T04:45:33;101718.38;;;22.79;51.58
60897;BME280;46749;32.932;-117.130;2023-04-22T04:48:02;101714.84;;;22.74;51.40
60897;BME280;46749;32.932;-117.130;2023-04-22T04:50:29;101710.44;;;22.72;51.51
60897;BME280;46749;32.932;-117.130;2023-04-22T04:52:56;101709.53;;;22.68;51.37
60897;BME280;46749;32.932;-117.130;2023-04-22T04:55:22;101713.06;;;22.64;51.31
60897;BME280;46749;32.932;-117.130;2023-04-22T04:57:48;101705.97;;;22.61;51.36
60897;BME280;46749;32.932;-117.130;2023-04-22T05:00:15;101700.69;;;22.57;51.71
60897;BME280;46749;32.932;-117.130;2023-04-22T05:02:41;101711.25;;;22.54;51.42
60897;BME280;46749;32.932;-117.130;2023-04-22T05:05:08;101715.69;;;22.52;51.67
60897;BME280;46749;32.932;-117.130;2023-04-22T05:07:34;101708.59;;;22.49;51.46
60897;BME280;46749;32.932;-117.130;2023-04-22T05:10:01;101704.19;;;22.47;51.46
60897;BME280;46749;32.932;-117.130;2023-04-22T05:12:27;101712.09;;;22.44;51.50
60897;BME280;46749;32.932;-117.130;2023-04-22T05:14:54;101710.34;;;22.41;51.98
60897;BME280;46749;32.932;-117.130;2023-04-22T05:17:20;101714.72;;;22.38;51.50
60897;BME280;46749;32.932;-117.130;2023-04-22T05:19:46;101720.91;;;22.35;51.66
60897;BME280;46749;32.932;-117.130;2023-04-22T05:22:13;101711.22;;;22.32;51.92
60897;BME280;46749;32.932;-117.130;2023-04-22T05:24:39;101705.88;;;22.29;51.90
60897;BME280;46749;32.932;-117.130;2023-04-22T05:27:05;101705.00;;;22.26;51.58
60897;BME280;46749;32.932;-117.130;2023-04-22T05:29:32;101708.50;;;22.23;51.56
60897;BME280;46749;32.932;-117.130;2023-04-22T05:31:58;101701.47;;;22.19;51.84
60897;BME280;46749;32.932;-117.130;2023-04-22T05:34:25;101705.84;;;22.17;51.68
60897;BME280;46749;32.932;-117.130;2023-04-22T05:36:51;101698.78;;;22.15;51.95
60897;BME280;46749;32.932;-117.130;2023-04-22T05:39:18;101696.97;;;22.12;51.96
60897;BME280;46749;32.932;-117.130;2023-04-22T05:41:44;101692.56;;;22.10;51.93
60897;BME280;46749;32.932;-117.130;2023-04-22T05:44:10;101689.03;;;22.07;51.87
60897;BME280;46749;32.932;-117.130;2023-04-22T05:46:37;101696.03;;;22.05;52.12
60897;BME280;46749;32.932;-117.130;2023-04-22T05:49:03;101682.81;;;22.04;52.12
60897;BME280;46749;32.932;-117.130;2023-04-22T05:51:29;101685.47;;;22.01;51.82
60897;BME280;46749;32.932;-117.130;2023-04-22T05:53:55;101684.56;;;21.99;52.15
60897;BME280;46749;32.932;-117.130;2023-04-22T05:56:22;101677.50;;;21.98;52.02
60897;BME280;46749;32.932;-117.130;2023-04-22T05:58:48;101678.38;;;21.95;52.15
60897;BME280;46749;32.932;-117.130;2023-04-22T06:01:14;101678.38;;;21.94;52.24
60897;BME280;46749;32.932;-117.130;2023-04-22T06:03:41;101680.13;;;21.92;52.15
60897;BME280;46749;32.932;-117.130;2023-04-22T06:06:07;101681.88;;;21.90;52.01
60897;BME280;46749;32.932;-117.130;2023-04-22T06:08:34;101677.44;;;21.87;52.01
60897;BME280;46749;32.932;-117.130;2023-04-22T06:11:00;101679.19;;;21.87;52.03
60897;BME280;46749;32.932;-117.130;2023-04-22T06:13:26;101679.19;;;21.84;52.10
60897;BME280;46749;32.932;-117.130;2023-04-22T06:15:53;101674.78;;;21.83;52.23
60897;BME280;46749;32.932;-117.130;2023-04-22T06:18:19;101673.88;;;21.80;52.11
60897;BME280;46749;32.932;-117.130;2023-04-22T06:20:45;101666.81;;;21.79;51.95
60897;BME280;46749;32.932;-117.130;2023-04-22T06:23:11;101665.06;;;21.77;52.22
60897;BME280;46749;32.932;-117.130;2023-04-22T06:25:37;101654.50;;;21.75;52.15
60897;BME280;46749;32.932;-117.130;2023-04-22T06:28:04;101658.88;;;21.73;52.29
60897;BME280;46749;32.932;-117.130;2023-04-22T06:30:30;101665.03;;;21.72;52.42
60897;BME280;46749;32.932;-117.130;2023-04-22T06:32:56;101660.59;;;21.68;52.08
60897;BME280;46749;32.932;-117.130;2023-04-22T06:35:22;101657.06;;;21.68;52.34
60897;BME280;46749;32.932;-117.130;2023-04-22T06:37:49;101662.34;;;21.66;52.34
60897;BME280;46749;32.932;-117.130;2023-04-22T06:40:15;101655.31;;;21.64;52.35
60897;BME280;46749;32.932;-117.130;2023-04-22T06:42:41;101652.63;;;21.62;52.30
60897;BME280;46749;32.932;-117.130;2023-04-22T06:45:08;101652.63;;;21.59;52.30
60897;BME280;46749;32.932;-117.130;2023-04-22T06:47:40;101655.25;;;21.58;52.24
60897;BME280;46749;32.932;-117.130;2023-04-22T06:50:08;101647.34;;;21.56;52.25
60897;BME280;46749;32.932;-117.130;2023-04-22T06:52:34;101648.19;;;21.53;52.25
60897;BME280;46749;32.932;-117.130;2023-04-22T06:55:01;101650.81;;;21.52;52.38
60897;BME280;46749;32.932;-117.130;2023-04-22T06:57:29;101642.00;;;21.50;52.32
60897;BME280;46749;32.932;-117.130;2023-04-22T06:59:55;101651.66;;;21.49;52.24
60897;BME280;46749;32.932;-117.130;2023-04-22T07:02:21;101653.44;;;21.47;52.40
60897;BME280;46749;32.932;-117.130;2023-04-22T07:04:48;101650.78;;;21.46;52.25
60897;BME280;46749;32.932;-117.130;2023-04-22T07:07:14;101648.13;;;21.44;52.27
60897;BME280;46749;32.932;-117.130;2023-04-22T07:09:40;101651.63;;;21.43;52.40
60897;BME280;46749;32.932;-117.130;2023-04-22T07:12:06;101652.50;;;21.41;52.51
60897;BME280;46749;32.932;-117.130;2023-04-22T07:14:33;101648.97;;;21.39;52.48
60897;BME280;46749;32.932;-117.130;2023-04-22T07:16:59;101654.25;;;21.39;52.52
60897;BME280;46749;32.932;-117.130;2023-04-22T07:19:25;101641.94;;;21.38;52.44
60897;BME280;46749;32.932;-117.130;2023-04-22T07:21:52;101641.00;;;21.36;52.33
60897;BME280;46749;32.932;-117.130;2023-04-22T07:24:18;101633.09;;;21.33;52.13
60897;BME280;46749;32.932;-117.130;2023-04-22T07:26:44;101630.44;;;21.33;52.36
60897;BME280;46749;32.932;-117.130;2023-04-22T07:29:10;101619.88;;;21.31;52.38
60897;BME280;46749;32.932;-117.130;2023-04-22T07:31:37;101622.47;;;21.30;52.56
60897;BME280;46749;32.932;-117.130;2023-04-22T07:34:04;101613.63;;;21.27;52.33
60897;BME280;46749;32.932;-117.130;2023-04-22T07:36:30;101621.56;;;21.26;52.19
60897;BME280;46749;32.932;-117.130;2023-04-22T07:38:59;101619.78;;;21.26;52.42
60897;BME280;46749;32.932;-117.130;2023-04-22T07:41:25;101618.00;;;21.24;52.39
60897;BME280;46749;32.932;-117.130;2023-04-22T07:43:52;101624.16;;;21.23;52.21
60897;BME280;46749;32.932;-117.130;2023-04-22T07:46:18;101623.28;;;21.21;52.50
60897;BME280;46749;32.932;-117.130;2023-04-22T07:48:45;101625.91;;;21.19;52.34
60897;BME280;46749;32.932;-117.130;2023-04-22T07:51:11;101618.88;;;21.18;52.35
60897;BME280;46749;32.932;-117.130;2023-04-22T07:53:38;101613.56;;;21.17;52.35
60897;BME280;46749;32.932;-117.130;2023-04-22T07:56:24;101614.44;;;21.16;52.29
60897;BME280;46749;32.932;-117.130;2023-04-22T07:58:51;101617.06;;;21.14;52.24
60897;BME280;46749;32.932;-117.130;2023-04-22T08:01:17;101614.44;;;21.13;52.21
60897;BME280;46749;32.932;-117.130;2023-04-22T08:03:43;101624.09;;;21.12;52.54
60897;BME280;46749;32.932;-117.130;2023-04-22T08:06:10;101615.25;;;21.10;52.40
60897;BME280;46749;32.932;-117.130;2023-04-22T08:08:36;101617.91;;;21.09;52.27
60897;BME280;46749;32.932;-117.130;2023-04-22T08:11:02;101610.84;;;21.08;52.37
60897;BME280;46749;32.932;-117.130;2023-04-22T08:13:29;101612.59;;;21.06;52.42
60897;BME280;46749;32.932;-117.130;2023-04-22T08:15:55;101613.47;;;21.05;52.12
60897;BME280;46749;32.932;-117.130;2023-04-22T08:18:22;101613.47;;;21.03;52.21
60897;BME280;46749;32.932;-117.130;2023-04-22T08:20:49;101614.34;;;21.02;52.46
60897;BME280;46749;32.932;-117.130;2023-04-22T08:23:15;101609.94;;;21.01;52.33
60897;BME280;46749;32.932;-117.130;2023-04-22T08:25:41;101614.28;;;20.99;52.40
60897;BME280;46749;32.932;-117.130;2023-04-22T08:28:07;101615.19;;;20.98;52.21
60897;BME280;46749;32.932;-117.130;2023-04-22T08:30:34;101608.13;;;20.97;52.29
60897;BME280;46749;32.932;-117.130;2023-04-22T08:33:01;101602.84;;;20.95;52.45
60897;BME280;46749;32.932;-117.130;2023-04-22T08:35:27;101613.41;;;20.94;52.24
60897;BME280;46749;32.932;-117.130;2023-04-22T08:37:54;101601.97;;;20.93;52.21
60897;BME280;46749;32.932;-117.130;2023-04-22T08:40:20;101602.78;;;20.91;52.47
60897;BME280;46749;32.932;-117.130;2023-04-22T08:42:47;101590.47;;;20.90;52.28
60897;BME280;46749;32.932;-117.130;2023-04-22T08:45:13;101588.72;;;20.89;52.54
60897;BME280;46749;32.932;-117.130;2023-04-22T08:47:40;101579.91;;;20.87;52.59
60897;BME280;46749;32.932;-117.130;2023-04-22T08:50:08;101578.09;;;20.86;52.69
60897;BME280;46749;32.932;-117.130;2023-04-22T08:52:34;101584.25;;;20.85;52.45
60897;BME280;46749;32.932;-117.130;2023-04-22T08:55:00;101583.38;;;20.84;52.40
60897;BME280;46749;32.932;-117.130;2023-04-22T08:57:27;101569.28;;;20.81;52.10
60897;BME280;46749;32.932;-117.130;2023-04-22T08:59:55;101576.28;;;20.80;52.42
60897;BME280;46749;32.932;-117.130;2023-04-22T09:02:23;101572.78;;;20.80;52.54
60897;BME280;46749;32.932;-117.130;2023-04-22T09:04:52;101571.88;;;20.78;52.17
60897;BME280;46749;32.932;-117.130;2023-04-22T09:07:24;101571.00;;;20.76;52.23
60897;BME280;46749;32.932;-117.130;2023-04-22T09:09:55;101564.81;;;20.73;52.49
60897;BME280;46749;32.932;-117.130;2023-04-22T09:12:22;101572.72;;;20.73;52.28
60897;BME280;46749;32.932;-117.130;2023-04-22T09:14:50;101561.28;;;20.71;52.40
60897;BME280;46749;32.932;-117.130;2023-04-22T09:17:28;101563.91;;;20.71;52.71
60897;BME280;46749;32.932;-117.130;2023-04-22T09:20:01;101563.03;;;20.69;52.65
60897;BME280;46749;32.932;-117.130;2023-04-22T09:22:40;101570.06;;;20.69;52.66
60897;BME280;46749;32.932;-117.130;2023-04-22T09:25:17;101564.75;;;20.66;52.52
60897;BME280;46749;32.932;-117.130;2023-04-22T09:27:50;101562.13;;;20.64;52.32
60897;BME280;46749;32.932;-117.130;2023-04-22T09:30:28;101560.34;;;20.63;52.46
60897;BME280;46749;32.932;-117.130;2023-04-22T09:32:57;101556.78;;;20.61;52.61
60897;BME280;46749;32.932;-117.130;2023-04-22T09:35:31;101555.91;;;20.61;52.26
60897;BME280;46749;32.932;-117.130;2023-04-22T09:38:00;101544.47;;;20.59;52.50
60897;BME280;46749;32.932;-117.130;2023-04-22T09:40:28;101543.56;;;20.57;52.64
60897;BME280;46749;32.932;-117.130;2023-04-22T09:42:57;101531.25;;;20.56;52.23
60897;BME280;46749;32.932;-117.130;2023-04-22T09:45:40;101532.09;;;20.53;52.32
60897;BME280;46749;32.932;-117.130;2023-04-22T09:50:37;101529.44;;;20.52;52.28
60897;BME280;46749;32.932;-117.130;2023-04-22T09:53:07;101528.56;;;20.51;52.35
60897;BME280;46749;32.932;-117.130;2023-04-22T09:55:36;101525.06;;;20.49;52.68
60897;BME280;46749;32.932;-117.130;2023-04-22T09:58:11;101523.25;;;20.48;52.14
60897;BME280;46749;32.932;-117.130;2023-04-22T10:00:45;101512.69;;;20.46;52.31
60897;BME280;46749;32.932;-117.130;2023-04-22T10:03:13;101512.69;;;20.45;52.21
60897;BME280;46749;32.932;-117.130;2023-04-22T10:05:39;101509.19;;;20.46;52.21
60897;BME280;46749;32.932;-117.130;2023-04-22T10:08:08;101510.88;;;20.44;52.24
60897;BME280;46749;32.932;-117.130;2023-04-22T10:10:35;101506.44;;;20.41;52.31
60897;BME280;46749;32.932;-117.130;2023-04-22T10:13:03;101505.56;;;20.39;52.50
60897;BME280;46749;32.932;-117.130;2023-04-22T10:15:53;101500.28;;;20.38;52.30
60897;BME280;46749;32.932;-117.130;2023-04-22T10:18:25;101496.75;;;20.37;52.56
60897;BME280;46749;32.932;-117.130;2023-04-22T10:20:53;101489.69;;;20.35;52.53
60897;BME280;46749;32.932;-117.130;2023-04-22T10:23:23;101491.44;;;20.33;52.36
60897;BME280;46749;32.932;-117.130;2023-04-22T10:25:52;101486.16;;;20.31;52.61
60897;BME280;46749;32.932;-117.130;2023-04-22T10:28:20;101483.53;;;20.31;52.27
60897;BME280;46749;32.932;-117.130;2023-04-22T10:30:47;101483.47;;;20.30;52.57
60897;BME280;46749;32.932;-117.130;2023-04-22T10:36:09;101478.19;;;20.27;52.58
60897;BME280;46749;32.932;-117.130;2023-04-22T10:38:40;101483.47;;;20.25;52.41
60897;BME280;46749;32.932;-117.130;2023-04-22T10:41:12;101482.59;;;20.25;52.50
60897;BME280;46749;32.932;-117.130;2023-04-22T10:43:47;101486.06;;;20.24;52.46
60897;BME280;46749;32.932;-117.130;2023-04-22T10:49:05;101475.50;;;20.20;52.50
60897;BME280;46749;32.932;-117.130;2023-04-22T10:51:44;101478.13;;;20.19;52.34
60897;BME280;46749;32.932;-117.130;2023-04-22T10:57:17;101487.81;;;20.18;52.32
60897;BME280;46749;32.932;-117.130;2023-04-22T10:59:50;101482.50;;;20.15;52.49
60897;BME280;46749;32.932;-117.130;2023-04-22T11:02:18;101479.84;;;20.14;52.44
60897;BME280;46749;32.932;-117.130;2023-04-22T11:04:46;101485.13;;;20.14;52.54
60897;BME280;46749;32.932;-117.130;2023-04-22T11:09:52;101478.91;;;20.10;52.20
60897;BME280;46749;32.932;-117.130;2023-04-22T11:15:09;101471.00;;;20.07;52.30
60897;BME280;46749;32.932;-117.130;2023-04-22T11:17:36;101471.88;;;20.06;52.69
60897;BME280;46749;32.932;-117.130;2023-04-22T11:20:04;101470.09;;;20.05;52.53
60897;BME280;46749;32.932;-117.130;2023-04-22T11:22:42;101467.44;;;20.04;52.48
60897;BME280;46749;32.932;-117.130;2023-04-22T11:25:09;101464.78;;;20.02;52.63
60897;BME280;46749;32.932;-117.130;2023-04-22T11:27:36;101463.91;;;20.02;52.49
60897;BME280;46749;32.932;-117.130;2023-04-22T11:32:32;101462.97;;;19.98;52.22
60897;BME280;46749;32.932;-117.130;2023-04-22T11:35:02;101458.59;;;19.97;52.56
60897;BME280;46749;32.932;-117.130;2023-04-22T11:37:58;101456.81;;;19.96;52.31
60897;BME280;46749;32.932;-117.130;2023-04-22T11:40:30;101452.41;;;19.95;52.29
60897;BME280;46749;32.932;-117.130;2023-04-22T11:42:58;101450.66;;;19.94;52.57
60897;BME280;46749;32.932;-117.130;2023-04-22T11:45:26;101455.00;;;19.92;52.35
60897;BME280;46749;32.932;-117.130;2023-04-22T11:47:53;101455.88;;;19.91;52.54
60897;BME280;46749;32.932;-117.130;2023-04-22T11:50:28;101447.97;;;19.89;52.54
60897;BME280;46749;32.932;-117.130;2023-04-22T11:52:57;101451.47;;;19.88;52.36
60897;BME280;46749;32.932;-117.130;2023-04-22T11:55:26;101448.84;;;19.87;52.21
60897;BME280;46749;32.932;-117.130;2023-04-22T11:58:09;101437.41;;;19.86;52.21
60897;BME280;46749;32.932;-117.130;2023-04-22T12:00:38;101439.13;;;19.84;52.23
60897;BME280;46749;32.932;-117.130;2023-04-22T12:03:19;101440.88;;;19.84;52.66
60897;BME280;46749;32.932;-117.130;2023-04-22T12:08:19;101434.69;;;19.79;52.44
60897;BME280;46749;32.932;-117.130;2023-04-22T12:16:15;101416.19;;;19.74;52.81
60897;BME280;46749;32.932;-117.130;2023-04-22T12:18:49;101421.47;;;19.74;52.87
60897;BME280;46749;32.932;-117.130;2023-04-22T12:21:24;101416.16;;;19.73;52.64
60897;BME280;46749;32.932;-117.130;2023-04-22T12:23:54;101417.03;;;19.72;52.61
60897;BME280;46749;32.932;-117.130;2023-04-22T12:26:22;101414.38;;;19.69;52.81
60897;BME280;46749;32.932;-117.130;2023-04-22T12:28:49;101417.03;;;19.69;52.79
60897;BME280;46749;32.932;-117.130;2023-04-22T12:31:16;101411.69;;;19.65;52.58
60897;BME280;46749;32.932;-117.130;2023-04-22T12:33:43;101414.34;;;19.64;52.47
60897;BME280;46749;32.932;-117.130;2023-04-22T12:36:11;101410.81;;;19.63;52.93
60897;BME280;46749;32.932;-117.130;2023-04-22T12:38:38;101412.56;;;19.63;52.63
60897;BME280;46749;32.932;-117.130;2023-04-22T12:41:05;101415.19;;;19.61;52.82
60897;BME280;46749;32.932;-117.130;2023-04-22T12:43:32;101412.53;;;19.60;52.81
60897;BME280;46749;32.932;-117.130;2023-04-22T12:46:01;101415.16;;;19.58;52.48
60897;BME280;46749;32.932;-117.130;2023-04-22T12:48:28;101415.09;;;19.57;52.47
60897;BME280;46749;32.932;-117.130;2023-04-22T12:50:54;101415.09;;;19.55;52.52